createdAt,value
2022-12-28T00:00:41.480Z,1027.84
2022-12-28T00:01:41.505Z,1027.84
2022-12-28T00:02:41.498Z,1027.84
2022-12-28T00:03:41.474Z,1027.78
2022-12-28T00:04:41.456Z,1027.7
2022-12-28T00:05:41.457Z,1027.67
2022-12-28T00:06:41.481Z,1027.6
2022-12-28T00:07:41.449Z,1027.62
2022-12-28T00:08:41.448Z,1027.6
2022-12-28T00:09:41.486Z,1027.62
2022-12-28T00:11:06.734Z,1027.61
2022-12-28T00:11:41.489Z,1027.61
2022-12-28T00:12:41.472Z,1027.54
2022-12-28T00:13:41.466Z,1027.54
2022-12-28T00:14:41.460Z,1027.53
2022-12-28T00:15:41.481Z,1027.45
2022-12-28T00:16:41.556Z,1027.45
2022-12-28T00:17:41.453Z,1027.52
2022-12-28T00:18:41.467Z,1027.53
2022-12-28T00:19:41.478Z,1027.5
2022-12-28T00:20:41.461Z,1027.39
2022-12-28T00:21:41.502Z,1027.52
2022-12-28T00:22:41.470Z,1027.41
2022-12-28T00:23:41.459Z,1027.41
2022-12-28T00:24:41.460Z,1027.52
2022-12-28T00:25:41.483Z,1027.44
2022-12-28T00:26:41.469Z,1027.41
2022-12-28T00:27:41.470Z,1027.45
2022-12-28T00:28:41.454Z,1027.55
2022-12-28T00:29:41.452Z,1027.52
2022-12-28T00:30:41.431Z,1027.52
2022-12-28T00:31:41.511Z,1027.57
2022-12-28T00:32:41.439Z,1027.57
2022-12-28T00:33:41.457Z,1027.57
2022-12-28T00:34:41.452Z,1027.54
2022-12-28T00:35:41.448Z,1027.52
2022-12-28T00:37:09.998Z,1027.53
2022-12-28T00:37:41.461Z,1027.6
2022-12-28T00:38:41.454Z,1027.58
2022-12-28T00:39:41.460Z,1027.59
2022-12-28T00:40:41.479Z,1027.57
2022-12-28T00:41:41.481Z,1027.59
2022-12-28T00:42:41.458Z,1027.55
2022-12-28T00:43:41.456Z,1027.6
2022-12-28T00:44:41.475Z,1027.65
2022-12-28T00:45:41.480Z,1027.58
2022-12-28T00:46:41.487Z,1027.54
2022-12-28T00:47:41.452Z,1027.52
2022-12-28T00:48:41.452Z,1027.47
2022-12-28T00:49:41.457Z,1027.48
2022-12-28T00:50:41.452Z,1027.47
2022-12-28T00:51:41.472Z,1027.47
2022-12-28T00:52:41.432Z,1027.5
2022-12-28T00:53:41.443Z,1027.5
2022-12-28T00:54:41.441Z,1027.46
2022-12-28T00:55:41.447Z,1027.46
2022-12-28T00:56:41.463Z,1027.43
2022-12-28T00:57:41.438Z,1027.4
2022-12-28T00:58:41.438Z,1027.36
2022-12-28T00:59:41.431Z,1027.37
2022-12-28T01:00:41.552Z,1027.34
2022-12-28T01:01:41.609Z,1027.31
2022-12-28T01:02:41.524Z,1027.25
2022-12-28T01:03:41.443Z,1027.25
2022-12-28T01:04:41.439Z,1027.29
2022-12-28T01:05:41.440Z,1027.28
2022-12-28T01:06:41.451Z,1027.29
2022-12-28T01:07:41.505Z,1027.33
2022-12-28T01:08:41.448Z,1027.34
2022-12-28T01:09:41.442Z,1027.32
2022-12-28T01:10:41.450Z,1027.33
2022-12-28T01:11:41.460Z,1027.33
2022-12-28T01:12:41.438Z,1027.33
2022-12-28T01:13:41.516Z,1027.32
2022-12-28T01:14:41.436Z,1027.32
2022-12-28T01:15:41.436Z,1027.31
2022-12-28T01:16:41.499Z,1027.32
2022-12-28T01:17:41.446Z,1027.33
2022-12-28T01:18:41.454Z,1027.29
2022-12-28T01:19:41.446Z,1027.24
2022-12-28T01:20:41.459Z,1027.22
2022-12-28T01:21:41.460Z,1027.16
2022-12-28T01:22:41.460Z,1027.23
2022-12-28T01:23:41.456Z,1027.17
2022-12-28T01:24:41.449Z,1027.21
2022-12-28T01:25:41.476Z,1027.28
2022-12-28T01:26:41.467Z,1027.19
2022-12-28T01:27:41.457Z,1027.19
2022-12-28T01:28:41.462Z,1027.19
2022-12-28T01:29:41.463Z,1027.16
2022-12-28T01:30:41.439Z,1027.16
2022-12-28T01:31:41.571Z,1027.2
2022-12-28T01:32:41.453Z,1027.19
2022-12-28T01:33:41.448Z,1027.16
2022-12-28T01:34:41.454Z,1027.14
2022-12-28T01:35:41.456Z,1027.15
2022-12-28T01:36:41.488Z,1027.18
2022-12-28T01:37:41.462Z,1027.15
2022-12-28T01:38:41.472Z,1027.09
2022-12-28T01:39:41.457Z,1027.06
2022-12-28T01:40:41.466Z,1026.96
2022-12-28T01:41:41.478Z,1026.96
2022-12-28T01:42:41.471Z,1026.89
2022-12-28T01:43:41.454Z,1026.9
2022-12-28T01:44:41.460Z,1026.83
2022-12-28T01:45:41.461Z,1026.83
2022-12-28T01:46:41.462Z,1026.83
2022-12-28T01:47:41.458Z,1026.84
2022-12-28T01:48:41.465Z,1026.85
2022-12-28T01:49:41.463Z,1026.85
2022-12-28T01:50:41.458Z,1026.83
2022-12-28T01:51:41.475Z,1026.82
2022-12-28T01:52:41.463Z,1026.78
2022-12-28T01:53:41.447Z,1026.79
2022-12-28T01:54:41.450Z,1026.74
2022-12-28T01:55:41.469Z,1026.76
2022-12-28T01:56:41.478Z,1026.71
2022-12-28T01:57:41.457Z,1026.6
2022-12-28T01:58:41.449Z,1026.6
2022-12-28T01:59:41.455Z,1026.56
2022-12-28T02:00:41.440Z,1026.56
2022-12-28T02:01:41.695Z,1026.53
2022-12-28T02:02:41.637Z,1026.53
2022-12-28T02:03:41.455Z,1026.51
2022-12-28T02:04:41.490Z,1026.5
2022-12-28T02:05:41.437Z,1026.5
2022-12-28T02:06:41.471Z,1026.5
2022-12-28T02:07:41.430Z,1026.47
2022-12-28T02:08:41.432Z,1026.45
2022-12-28T02:09:41.459Z,1026.38
2022-12-28T02:10:45.704Z,1026.36
2022-12-28T02:11:41.476Z,1026.36
2022-12-28T02:12:41.475Z,1026.38
2022-12-28T02:13:41.430Z,1026.4
2022-12-28T02:14:41.438Z,1026.35
2022-12-28T02:15:41.438Z,1026.31
2022-12-28T02:16:41.489Z,1026.36
2022-12-28T02:17:41.448Z,1026.3
2022-12-28T02:18:41.432Z,1026.37
2022-12-28T02:19:41.441Z,1026.31
2022-12-28T02:20:41.429Z,1026.25
2022-12-28T02:21:41.453Z,1026.21
2022-12-28T02:22:41.440Z,1026.28
2022-12-28T02:23:41.443Z,1026.3
2022-12-28T02:24:41.433Z,1026.17
2022-12-28T02:25:41.449Z,1026.2
2022-12-28T02:26:41.465Z,1026.2
2022-12-28T02:27:41.430Z,1026.27
2022-12-28T02:28:41.440Z,1026.13
2022-12-28T02:29:41.437Z,1026.18
2022-12-28T02:30:41.554Z,1026.18
2022-12-28T02:31:41.456Z,1026.24
2022-12-28T02:32:41.468Z,1026.16
2022-12-28T02:33:41.449Z,1026.17
2022-12-28T02:34:41.456Z,1026.02
2022-12-28T02:35:41.451Z,1026.08
2022-12-28T02:36:41.470Z,1025.99
2022-12-28T02:37:41.455Z,1026.03
2022-12-28T02:38:41.447Z,1025.92
2022-12-28T02:39:41.444Z,1025.95
2022-12-28T02:40:41.484Z,1025.93
2022-12-28T02:41:41.460Z,1025.94
2022-12-28T02:42:41.452Z,1025.93
2022-12-28T02:43:41.453Z,1025.81
2022-12-28T02:44:41.447Z,1025.83
2022-12-28T02:45:41.480Z,1025.83
2022-12-28T02:46:41.481Z,1025.9
2022-12-28T02:47:41.444Z,1025.8
2022-12-28T02:48:41.456Z,1025.76
2022-12-28T02:49:41.449Z,1025.78
2022-12-28T02:50:41.446Z,1025.73
2022-12-28T02:51:41.616Z,1025.79
2022-12-28T02:52:41.462Z,1025.73
2022-12-28T02:53:41.466Z,1025.81
2022-12-28T02:54:41.455Z,1025.76
2022-12-28T02:55:41.475Z,1025.78
2022-12-28T02:56:41.475Z,1025.73
2022-12-28T02:57:41.541Z,1025.71
2022-12-28T02:58:41.451Z,1025.84
2022-12-28T02:59:41.450Z,1025.81
2022-12-28T03:00:41.431Z,1025.81
2022-12-28T03:01:41.608Z,1025.71
2022-12-28T03:02:41.581Z,1025.71
2022-12-28T03:03:41.445Z,1025.64
2022-12-28T03:04:41.454Z,1025.62
2022-12-28T03:05:41.462Z,1025.67
2022-12-28T03:06:41.468Z,1025.6
2022-12-28T03:07:41.451Z,1025.48
2022-12-28T03:08:41.454Z,1025.59
2022-12-28T03:09:41.450Z,1025.4
2022-12-28T03:10:41.477Z,1025.48
2022-12-28T03:11:41.482Z,1025.47
2022-12-28T03:12:41.460Z,1025.5
2022-12-28T03:13:41.447Z,1025.49
2022-12-28T03:14:41.448Z,1025.48
2022-12-28T03:15:41.496Z,1025.45
2022-12-28T03:16:41.463Z,1025.4
2022-12-28T03:17:41.455Z,1025.42
2022-12-28T03:18:41.454Z,1025.45
2022-12-28T03:19:41.442Z,1025.45
2022-12-28T03:20:41.438Z,1025.44
2022-12-28T03:21:41.455Z,1025.44
2022-12-28T03:22:41.442Z,1025.44
2022-12-28T03:23:41.455Z,1025.42
2022-12-28T03:24:41.429Z,1025.31
2022-12-28T03:25:41.458Z,1025.32
2022-12-28T03:26:41.457Z,1025.3
2022-12-28T03:27:41.455Z,1025.28
2022-12-28T03:28:41.431Z,1025.21
2022-12-28T03:29:41.444Z,1025.17
2022-12-28T03:30:41.462Z,1025.2
2022-12-28T03:31:41.451Z,1025.13
2022-12-28T03:32:41.428Z,1025.07
2022-12-28T03:33:41.439Z,1025.11
2022-12-28T03:34:41.427Z,1025.1
2022-12-28T03:35:41.426Z,1025.04
2022-12-28T03:36:41.464Z,1025.04
2022-12-28T03:37:41.441Z,1025.03
2022-12-28T03:38:41.427Z,1025.06
2022-12-28T03:39:41.432Z,1024.96
2022-12-28T03:40:41.447Z,1025
2022-12-28T03:41:41.463Z,1025.04
2022-12-28T03:42:41.442Z,1024.94
2022-12-28T03:43:41.439Z,1025.01
2022-12-28T03:44:41.429Z,1024.82
2022-12-28T03:45:46.340Z,1024.91
2022-12-28T03:46:41.475Z,1024.91
2022-12-28T03:47:41.448Z,1025.05
2022-12-28T03:48:41.452Z,1024.84
2022-12-28T03:49:41.449Z,1024.76
2022-12-28T03:50:41.458Z,1024.85
2022-12-28T03:51:41.469Z,1024.78
2022-12-28T03:52:41.451Z,1025.04
2022-12-28T03:53:41.466Z,1024.76
2022-12-28T03:54:41.463Z,1024.73
2022-12-28T03:55:41.464Z,1024.76
2022-12-28T03:56:41.460Z,1024.83
2022-12-28T03:57:41.448Z,1024.73
2022-12-28T03:58:41.446Z,1024.66
2022-12-28T03:59:41.461Z,1024.7
2022-12-28T04:00:41.444Z,1024.7
2022-12-28T04:01:41.552Z,1024.71
2022-12-28T04:02:41.631Z,1024.71
2022-12-28T04:03:41.455Z,1024.7
2022-12-28T04:04:41.452Z,1024.77
2022-12-28T04:05:41.455Z,1024.73
2022-12-28T04:06:41.471Z,1024.67
2022-12-28T04:07:41.455Z,1024.78
2022-12-28T04:08:41.453Z,1024.76
2022-12-28T04:09:41.456Z,1024.77
2022-12-28T04:10:41.473Z,1024.74
2022-12-28T04:11:41.467Z,1024.66
2022-12-28T04:12:41.460Z,1024.66
2022-12-28T04:13:41.455Z,1024.66
2022-12-28T04:14:41.462Z,1024.6
2022-12-28T04:15:41.473Z,1024.63
2022-12-28T04:16:41.470Z,1024.53
2022-12-28T04:17:41.465Z,1024.53
2022-12-28T04:18:41.461Z,1024.61
2022-12-28T04:19:41.446Z,1024.55
2022-12-28T04:20:41.454Z,1024.57
2022-12-28T04:21:41.477Z,1024.47
2022-12-28T04:22:41.450Z,1024.59
2022-12-28T04:23:41.469Z,1024.4
2022-12-28T04:24:41.463Z,1024.36
2022-12-28T04:25:41.490Z,1024.32
2022-12-28T04:26:41.461Z,1024.35
2022-12-28T04:27:41.461Z,1024.1
2022-12-28T04:28:41.450Z,1024.32
2022-12-28T04:29:41.444Z,1024.31
2022-12-28T04:30:41.436Z,1024.31
2022-12-28T04:31:41.520Z,1024.21
2022-12-28T04:32:41.461Z,1024.26
2022-12-28T04:33:41.459Z,1024.15
2022-12-28T04:34:48.012Z,1024.17
2022-12-28T04:35:41.453Z,1024.17
2022-12-28T04:36:41.461Z,1024.16
2022-12-28T04:37:41.436Z,1024.27
2022-12-28T04:38:41.438Z,1024.39
2022-12-28T04:39:55.298Z,1024.17
2022-12-28T04:40:41.447Z,1024.31
2022-12-28T04:41:41.457Z,1024.17
2022-12-28T04:42:41.448Z,1024.1
2022-12-28T04:43:41.463Z,1024.22
2022-12-28T04:44:41.441Z,1024.21
2022-12-28T04:45:41.447Z,1024.03
2022-12-28T04:46:41.533Z,1024.08
2022-12-28T04:47:41.443Z,1024.18
2022-12-28T04:48:41.434Z,1024.04
2022-12-28T04:49:41.435Z,1024.09
2022-12-28T04:50:41.434Z,1024.04
2022-12-28T04:51:41.455Z,1024.09
2022-12-28T04:52:41.430Z,1024.08
2022-12-28T04:53:41.451Z,1024.22
2022-12-28T04:54:41.442Z,1024.06
2022-12-28T04:55:41.451Z,1024.01
2022-12-28T04:56:41.456Z,1024
2022-12-28T04:57:41.436Z,1024.03
2022-12-28T04:58:41.441Z,1023.95
2022-12-28T04:59:41.442Z,1023.87
2022-12-28T05:00:41.497Z,1023.87
2022-12-28T05:01:41.669Z,1023.96
2022-12-28T05:02:45.342Z,1023.96
2022-12-28T05:03:41.476Z,1023.85
2022-12-28T05:04:41.467Z,1023.77
2022-12-28T05:05:41.458Z,1023.76
2022-12-28T05:06:41.480Z,1023.86
2022-12-28T05:07:41.453Z,1023.77
2022-12-28T05:08:41.452Z,1023.7
2022-12-28T05:09:41.454Z,1023.71
2022-12-28T05:10:41.446Z,1023.71
2022-12-28T05:11:41.467Z,1024.16
2022-12-28T05:12:41.449Z,1023.7
2022-12-28T05:13:41.460Z,1023.7
2022-12-28T05:14:41.453Z,1023.74
2022-12-28T05:15:41.452Z,1023.78
2022-12-28T05:16:41.503Z,1023.73
2022-12-28T05:17:41.461Z,1023.75
2022-12-28T05:18:41.447Z,1023.65
2022-12-28T05:19:41.450Z,1023.71
2022-12-28T05:20:41.434Z,1023.71
2022-12-28T05:21:41.469Z,1023.69
2022-12-28T05:22:41.445Z,1023.59
2022-12-28T05:23:41.460Z,1023.75
2022-12-28T05:24:41.455Z,1023.84
2022-12-28T05:25:41.470Z,1023.76
2022-12-28T05:26:41.472Z,1023.75
2022-12-28T05:27:41.455Z,1023.82
2022-12-28T05:28:41.459Z,1023.76
2022-12-28T05:29:41.454Z,1023.84
2022-12-28T05:30:41.430Z,1023.84
2022-12-28T05:31:41.564Z,1023.78
2022-12-28T05:32:41.450Z,1023.74
2022-12-28T05:33:41.453Z,1023.7
2022-12-28T05:34:41.453Z,1023.67
2022-12-28T05:35:41.452Z,1023.73
2022-12-28T05:36:41.466Z,1023.72
2022-12-28T05:37:41.458Z,1023.88
2022-12-28T05:38:41.461Z,1023.74
2022-12-28T05:39:41.446Z,1023.87
2022-12-28T05:40:41.461Z,1023.87
2022-12-28T05:41:41.463Z,1023.89
2022-12-28T05:42:46.495Z,1024.06
2022-12-28T05:43:41.451Z,1023.95
2022-12-28T05:44:41.449Z,1024.06
2022-12-28T05:45:41.464Z,1024.21
2022-12-28T05:46:41.493Z,1023.87
2022-12-28T05:47:41.456Z,1023.88
2022-12-28T05:48:41.474Z,1023.94
2022-12-28T05:49:41.455Z,1024.01
2022-12-28T05:50:41.529Z,1024.01
2022-12-28T05:51:41.445Z,1023.91
2022-12-28T05:52:41.431Z,1023.96
2022-12-28T05:53:41.453Z,1023.81
2022-12-28T05:54:41.442Z,1023.78
2022-12-28T05:55:41.563Z,1023.82
2022-12-28T05:56:41.466Z,1023.75
2022-12-28T05:57:41.444Z,1023.8
2022-12-28T05:58:41.451Z,1023.68
2022-12-28T05:59:41.436Z,1023.58
2022-12-28T06:00:41.435Z,1023.72
2022-12-28T06:01:41.634Z,1023.54
2022-12-28T06:02:41.527Z,1023.52
2022-12-28T06:03:41.487Z,1023.53
2022-12-28T06:04:41.445Z,1023.58
2022-12-28T06:05:41.441Z,1023.61
2022-12-28T06:06:41.453Z,1023.62
2022-12-28T06:07:41.457Z,1023.63
2022-12-28T06:08:41.454Z,1023.57
2022-12-28T06:09:41.435Z,1023.51
2022-12-28T06:10:41.452Z,1023.51
2022-12-28T06:11:41.452Z,1023.67
2022-12-28T06:12:41.435Z,1023.6
2022-12-28T06:13:41.441Z,1023.72
2022-12-28T06:14:41.455Z,1023.69
2022-12-28T06:15:41.460Z,1023.72
2022-12-28T06:16:41.520Z,1023.83
2022-12-28T06:17:41.452Z,1023.88
2022-12-28T06:18:41.544Z,1023.91
2022-12-28T06:19:41.449Z,1023.89
2022-12-28T06:20:41.435Z,1023.89
2022-12-28T06:21:41.465Z,1023.73
2022-12-28T06:22:41.448Z,1023.82
2022-12-28T06:23:41.457Z,1023.85
2022-12-28T06:24:41.443Z,1023.57
2022-12-28T06:25:41.467Z,1024.03
2022-12-28T06:26:41.486Z,1023.96
2022-12-28T06:27:41.441Z,1023.62
2022-12-28T06:28:41.456Z,1023.69
2022-12-28T06:29:41.457Z,1023.67
2022-12-28T06:30:41.432Z,1023.67
2022-12-28T06:31:41.519Z,1023.6
2022-12-28T06:32:41.452Z,1023.64
2022-12-28T06:33:41.451Z,1023.6
2022-12-28T06:34:41.448Z,1023.53
2022-12-28T06:35:41.456Z,1023.72
2022-12-28T06:36:41.461Z,1023.6
2022-12-28T06:37:41.454Z,1023.74
2022-12-28T06:38:41.479Z,1023.56
2022-12-28T06:39:41.450Z,1023.62
2022-12-28T06:41:11.596Z,1023.62
2022-12-28T06:41:41.572Z,1023.8
2022-12-28T06:42:41.448Z,1023.74
2022-12-28T06:43:41.451Z,1023.88
2022-12-28T06:44:44.720Z,1023.71
2022-12-28T06:45:41.482Z,1023.84
2022-12-28T06:46:41.516Z,1023.66
2022-12-28T06:47:41.450Z,1023.46
2022-12-28T06:48:41.438Z,1023.4
2022-12-28T06:49:41.456Z,1023.25
2022-12-28T06:50:41.437Z,1023.25
2022-12-28T06:51:41.499Z,1023.59
2022-12-28T06:52:41.445Z,1023.39
2022-12-28T06:53:41.450Z,1023.52
2022-12-28T06:54:41.464Z,1023.59
2022-12-28T06:55:41.461Z,1023.66
2022-12-28T06:56:41.464Z,1023.61
2022-12-28T06:57:41.463Z,1023.53
2022-12-28T06:58:41.454Z,1023.7
2022-12-28T06:59:41.506Z,1023.68
2022-12-28T07:00:41.436Z,1023.68
2022-12-28T07:01:41.632Z,1023.57
2022-12-28T07:02:41.507Z,1023.53
2022-12-28T07:03:41.442Z,1023.53
2022-12-28T07:04:41.534Z,1023.48
2022-12-28T07:05:41.450Z,1023.57
2022-12-28T07:06:41.502Z,1023.71
2022-12-28T07:07:41.427Z,1023.58
2022-12-28T07:08:41.443Z,1023.8
2022-12-28T07:09:41.438Z,1023.45
2022-12-28T07:10:41.455Z,1023.58
2022-12-28T07:11:41.463Z,1023.48
2022-12-28T07:12:41.428Z,1023.65
2022-12-28T07:13:41.444Z,1023.49
2022-12-28T07:14:41.436Z,1023.76
2022-12-28T07:15:41.432Z,1023.56
2022-12-28T07:16:41.455Z,1023.47
2022-12-28T07:17:41.432Z,1023.51
2022-12-28T07:18:41.441Z,1023.6
2022-12-28T07:19:41.435Z,1023.43
2022-12-28T07:20:41.426Z,1023.43
2022-12-28T07:21:41.452Z,1023.4
2022-12-28T07:22:41.442Z,1023.38
2022-12-28T07:23:41.439Z,1023.4
2022-12-28T07:24:41.438Z,1023.4
2022-12-28T07:25:41.478Z,1023.38
2022-12-28T07:26:41.455Z,1023.36
2022-12-28T07:27:41.465Z,1023.3
2022-12-28T07:28:41.444Z,1023.26
2022-12-28T07:29:41.482Z,1023.44
2022-12-28T07:30:41.516Z,1023.44
2022-12-28T07:31:44.630Z,1023.33
2022-12-28T07:32:41.451Z,1023.36
2022-12-28T07:33:41.457Z,1023.21
2022-12-28T07:34:41.472Z,1023.33
2022-12-28T07:35:41.467Z,1023.29
2022-12-28T07:36:41.465Z,1023.35
2022-12-28T07:37:41.464Z,1023.24
2022-12-28T07:38:41.464Z,1023.24
2022-12-28T07:39:41.470Z,1023.25
2022-12-28T07:40:41.446Z,1023.25
2022-12-28T07:41:41.460Z,1023.13
2022-12-28T07:42:41.461Z,1023.14
2022-12-28T07:43:41.462Z,1022.91
2022-12-28T07:44:45.495Z,1023.25
2022-12-28T07:45:41.487Z,1023.31
2022-12-28T07:46:41.479Z,1022.91
2022-12-28T07:47:41.455Z,1023.1
2022-12-28T07:48:41.453Z,1023.01
2022-12-28T07:49:41.446Z,1023.11
2022-12-28T07:50:41.529Z,1023.11
2022-12-28T07:51:41.469Z,1022.93
2022-12-28T07:52:41.444Z,1023.01
2022-12-28T07:53:41.451Z,1022.91
2022-12-28T07:54:41.460Z,1022.88
2022-12-28T07:55:41.465Z,1022.92
2022-12-28T07:57:41.460Z,1022.71
2022-12-28T07:59:41.449Z,1022.79
2022-12-28T08:00:41.442Z,1022.79
2022-12-28T08:01:41.532Z,1022.71
2022-12-28T08:02:41.452Z,1022.71
2022-12-28T08:03:41.504Z,1022.74
2022-12-28T08:04:41.440Z,1022.66
2022-12-28T08:05:41.457Z,1022.66
2022-12-28T08:06:41.471Z,1022.74
2022-12-28T08:07:41.459Z,1022.77
2022-12-28T08:08:41.459Z,1022.67
2022-12-28T08:09:41.449Z,1022.47
2022-12-28T08:10:41.465Z,1022.25
2022-12-28T08:11:41.465Z,1022.25
2022-12-28T08:12:41.428Z,1022.42
2022-12-28T08:13:41.524Z,1022.42
2022-12-28T08:14:41.434Z,1022.22
2022-12-28T08:15:41.467Z,1022.41
2022-12-28T08:16:41.451Z,1022.68
2022-12-28T08:17:41.438Z,1022.26
2022-12-28T08:18:41.430Z,1022.6
2022-12-28T08:19:41.438Z,1022.31
2022-12-28T08:20:41.428Z,1022.34
2022-12-28T08:21:41.461Z,1022.48
2022-12-28T08:22:41.432Z,1022.35
2022-12-28T08:23:41.432Z,1022.45
2022-12-28T08:24:41.434Z,1022.4
2022-12-28T08:25:41.452Z,1022.63
2022-12-28T08:26:41.456Z,1022.51
2022-12-28T08:27:41.438Z,1022.53
2022-12-28T08:28:41.433Z,1022.46
2022-12-28T08:29:41.428Z,1022.44
2022-12-28T08:30:41.540Z,1022.44
2022-12-28T08:31:41.447Z,1022.31
2022-12-28T08:32:41.435Z,1022.56
2022-12-28T08:33:41.433Z,1022.5
2022-12-28T08:34:41.432Z,1022.51
2022-12-28T08:35:41.440Z,1022.46
2022-12-28T08:36:41.537Z,1022.5
2022-12-28T08:37:41.434Z,1022.58
2022-12-28T08:38:41.448Z,1022.53
2022-12-28T08:39:41.451Z,1022.44
2022-12-28T08:40:41.452Z,1022.44
2022-12-28T08:41:41.466Z,1022.6
2022-12-28T08:42:41.452Z,1022.8
2022-12-28T08:43:41.474Z,1022.59
2022-12-28T08:44:41.447Z,1022.63
2022-12-28T08:45:41.507Z,1022.61
2022-12-28T08:46:41.675Z,1022.54
2022-12-28T08:47:41.452Z,1022.57
2022-12-28T08:48:41.479Z,1022.71
2022-12-28T08:49:41.455Z,1022.66
2022-12-28T08:50:41.429Z,1022.66
2022-12-28T08:51:41.655Z,1022.74
2022-12-28T08:52:41.564Z,1022.75
2022-12-28T08:53:41.455Z,1022.82
2022-12-28T08:54:41.445Z,1022.79
2022-12-28T08:55:41.471Z,1022.67
2022-12-28T08:56:41.481Z,1022.61
2022-12-28T08:57:41.437Z,1022.63
2022-12-28T08:58:41.469Z,1022.52
2022-12-28T08:59:41.531Z,1022.64
2022-12-28T09:00:41.439Z,1022.64
2022-12-28T09:01:44.566Z,1022.46
2022-12-28T09:02:41.623Z,1022.46
2022-12-28T09:03:41.533Z,1022.43
2022-12-28T09:04:41.448Z,1022.51
2022-12-28T09:05:41.454Z,1022.52
2022-12-28T09:06:41.466Z,1022.4
2022-12-28T09:07:41.446Z,1022.34
2022-12-28T09:08:42.565Z,1022.28
2022-12-28T09:09:41.472Z,1022.17
2022-12-28T09:10:41.447Z,1022.17
2022-12-28T09:11:41.466Z,1021.99
2022-12-28T09:12:41.436Z,1022.07
2022-12-28T09:13:41.501Z,1022.09
2022-12-28T09:14:41.438Z,1022.22
2022-12-28T09:15:41.605Z,1022.23
2022-12-28T09:16:41.461Z,1022.35
2022-12-28T09:17:41.448Z,1022.36
2022-12-28T09:18:41.450Z,1022.33
2022-12-28T09:19:41.454Z,1022.3
2022-12-28T09:20:47.567Z,1022.37
2022-12-28T09:21:41.488Z,1022.31
2022-12-28T09:22:41.543Z,1022.23
2022-12-28T09:23:41.445Z,1022.42
2022-12-28T09:24:41.461Z,1022.26
2022-12-28T09:25:41.524Z,1022.43
2022-12-28T09:26:41.467Z,1022.35
2022-12-28T09:27:41.447Z,1022.35
2022-12-28T09:28:41.466Z,1022.18
2022-12-28T09:29:41.430Z,1022.15
2022-12-28T09:30:41.435Z,1022.2
2022-12-28T09:31:41.580Z,1022.14
2022-12-28T09:32:41.427Z,1022.18
2022-12-28T09:34:13.986Z,1022.21
2022-12-28T09:34:41.464Z,1022.24
2022-12-28T09:35:41.441Z,1022.48
2022-12-28T09:36:41.447Z,1022.13
2022-12-28T09:37:41.427Z,1022.18
2022-12-28T09:38:41.447Z,1022.17
2022-12-28T09:39:41.439Z,1022.08
2022-12-28T09:40:41.460Z,1022.08
2022-12-28T09:41:41.455Z,1022.06
2022-12-28T09:42:41.433Z,1022.25
2022-12-28T09:43:41.458Z,1022.14
2022-12-28T09:44:41.448Z,1022.12
2022-12-28T09:45:41.502Z,1022
2022-12-28T09:46:46.676Z,1022.11
2022-12-28T09:47:41.558Z,1021.94
2022-12-28T09:48:41.434Z,1021.92
2022-12-28T09:49:41.440Z,1021.83
2022-12-28T09:50:41.428Z,1021.83
2022-12-28T09:51:41.449Z,1021.88
2022-12-28T09:52:47.827Z,1021.8
2022-12-28T09:53:41.438Z,1021.77
2022-12-28T09:54:41.444Z,1021.72
2022-12-28T09:55:41.496Z,1021.81
2022-12-28T09:56:41.468Z,1021.73
2022-12-28T09:57:41.446Z,1021.67
2022-12-28T09:58:45.194Z,1021.81
2022-12-28T09:59:41.446Z,1021.64
2022-12-28T10:00:41.443Z,1021.64
2022-12-28T10:01:41.513Z,1021.42
2022-12-28T10:02:41.554Z,1021.42
2022-12-28T10:03:41.459Z,1021.38
2022-12-28T10:04:47.269Z,1021.37
2022-12-28T10:05:41.451Z,1021.45
2022-12-28T10:06:41.459Z,1021.29
2022-12-28T10:07:41.452Z,1021.52
2022-12-28T10:08:41.508Z,1021.34
2022-12-28T10:09:41.440Z,1021.41
2022-12-28T10:10:45.264Z,1021.41
2022-12-28T10:11:41.458Z,1021.1
2022-12-28T10:12:41.451Z,1021.17
2022-12-28T10:14:41.446Z,1021.16
2022-12-28T10:15:41.479Z,1021.16
2022-12-28T10:16:46.934Z,1021.08
2022-12-28T10:17:41.451Z,1021.22
2022-12-28T10:18:41.450Z,1021.27
2022-12-28T10:19:41.447Z,1021.28
2022-12-28T10:20:41.431Z,1021.28
2022-12-28T10:21:41.457Z,1021.15
2022-12-28T10:22:46.343Z,1020.88
2022-12-28T10:24:04.637Z,1020.97
2022-12-28T10:24:41.449Z,1020.94
2022-12-28T10:25:41.469Z,1020.96
2022-12-28T10:26:41.473Z,1021.13
2022-12-28T10:27:41.450Z,1020.88
2022-12-28T10:28:47.103Z,1020.95
2022-12-28T10:29:41.452Z,1020.93
2022-12-28T10:30:41.446Z,1020.93
2022-12-28T10:31:41.595Z,1020.86
2022-12-28T10:32:41.448Z,1020.85
2022-12-28T10:33:41.452Z,1020.86
2022-12-28T10:34:41.446Z,1020.96
2022-12-28T10:35:41.463Z,1020.89
2022-12-28T10:36:41.466Z,1020.9
2022-12-28T10:37:41.454Z,1020.97
2022-12-28T10:38:41.442Z,1020.87
2022-12-28T10:39:41.454Z,1020.75
2022-12-28T10:40:41.468Z,1020.75
2022-12-28T10:41:41.468Z,1020.63
2022-12-28T10:42:41.461Z,1020.63
2022-12-28T10:43:41.431Z,1020.78
2022-12-28T10:44:41.698Z,1020.86
2022-12-28T10:45:41.433Z,1020.87
2022-12-28T10:46:41.506Z,1020.86
2022-12-28T10:47:41.426Z,1021.07
2022-12-28T10:48:41.429Z,1021.12
2022-12-28T10:49:43.921Z,1021.02
2022-12-28T10:50:41.433Z,1021.18
2022-12-28T10:51:41.452Z,1020.85
2022-12-28T10:52:41.441Z,1020.92
2022-12-28T10:53:41.436Z,1020.96
2022-12-28T10:54:41.502Z,1020.88
2022-12-28T10:55:41.455Z,1020.83
2022-12-28T10:56:41.505Z,1020.99
2022-12-28T10:58:10.562Z,1020.92
2022-12-28T10:58:41.433Z,1020.97
2022-12-28T10:59:41.440Z,1020.75
2022-12-28T11:00:42.903Z,1020.77
2022-12-28T11:01:41.704Z,1020.66
2022-12-28T11:02:41.536Z,1020.73
2022-12-28T11:03:41.430Z,1020.73
2022-12-28T11:04:41.429Z,1020.59
2022-12-28T11:05:41.432Z,1020.39
2022-12-28T11:06:41.506Z,1020.48
2022-12-28T11:07:41.518Z,1020.4
2022-12-28T11:08:41.438Z,1020.42
2022-12-28T11:09:41.436Z,1020.4
2022-12-28T11:10:41.455Z,1020.4
2022-12-28T11:11:41.567Z,1020.29
2022-12-28T11:12:41.446Z,1020.35
2022-12-28T11:13:41.429Z,1020.49
2022-12-28T11:14:41.451Z,1020.39
2022-12-28T11:15:41.449Z,1020.42
2022-12-28T11:16:41.530Z,1020.39
2022-12-28T11:17:41.504Z,1020.44
2022-12-28T11:18:41.451Z,1020.47
2022-12-28T11:19:41.457Z,1020.43
2022-12-28T11:20:41.438Z,1020.43
2022-12-28T11:21:41.461Z,1020.57
2022-12-28T11:22:41.467Z,1020.33
2022-12-28T11:23:41.447Z,1020.36
2022-12-28T11:24:41.461Z,1020.57
2022-12-28T11:25:41.468Z,1020.23
2022-12-28T11:26:41.466Z,1020.18
2022-12-28T11:27:41.841Z,1020.01
2022-12-28T11:28:41.466Z,1020.15
2022-12-28T11:29:41.456Z,1020.16
2022-12-28T11:30:41.437Z,1020.21
2022-12-28T11:31:41.487Z,1020.27
2022-12-28T11:32:41.455Z,1020.05
2022-12-28T11:33:41.441Z,1020.2
2022-12-28T11:34:41.697Z,1020.27
2022-12-28T11:35:41.449Z,1020.35
2022-12-28T11:36:41.492Z,1020.18
2022-12-28T11:37:41.444Z,1020.36
2022-12-28T11:38:41.450Z,1020.4
2022-12-28T11:39:41.456Z,1020.62
2022-12-28T11:40:41.589Z,1020.62
2022-12-28T11:41:50.971Z,1020.38
2022-12-28T11:42:41.757Z,1020.4
2022-12-28T11:43:41.447Z,1020.39
2022-12-28T11:44:41.458Z,1020.27
2022-12-28T11:45:41.510Z,1020.31
2022-12-28T11:46:41.463Z,1020.23
2022-12-28T11:47:41.454Z,1020.2
2022-12-28T11:48:41.456Z,1020.2
2022-12-28T11:49:41.457Z,1020.14
2022-12-28T11:50:41.425Z,1020.14
2022-12-28T11:51:41.466Z,1020.1
2022-12-28T11:52:41.433Z,1020.1
2022-12-28T11:53:41.444Z,1020.63
2022-12-28T11:54:41.468Z,1020.21
2022-12-28T11:55:41.486Z,1020.25
2022-12-28T11:56:41.451Z,1020.14
2022-12-28T11:57:41.454Z,1020.05
2022-12-28T11:58:41.452Z,1020.09
2022-12-28T11:59:41.433Z,1020.09
2022-12-28T12:00:41.427Z,1020.15
2022-12-28T12:01:41.543Z,1020.14
2022-12-28T12:02:41.688Z,1020.16
2022-12-28T12:03:41.450Z,1020.16
2022-12-28T12:04:51.776Z,1020.17
2022-12-28T12:06:02.528Z,1020.05
2022-12-28T12:07:45.640Z,1019.91
2022-12-28T12:08:44.233Z,1020
2022-12-28T12:09:44.236Z,1019.89
2022-12-28T12:10:44.307Z,1019.89
2022-12-28T12:11:44.245Z,1019.88
2022-12-28T12:12:44.205Z,1019.92